Panstellar — V7YC7 — position and weather

sailwx.info

Track history (hours):
 
Tides and Currents Weather Stations Pressure Air Temp Water Temp Dewpoint Dewpoint Depression Visibility Wind Speed Wind Dir Waves Ship Positions

Panstellar

Last reported at 2018-May-04 17:50 UTC. Time now 2018-Jun-17 21:50 UTC.
Position N 34°23' W 072°05'.
Warning: this ship's position is 44 days out of date.

Length 225 m; draft 14.2 m.

Type: Cargo ship. MMSI: 538007173.

Date/timePositionNaut miles runAvg speedWind from/ knotsBaromVisibWave heightAir tempDewpointWater temp
2018-May-04 17:50N 34°23' W 072°05'14011.5
2018-May-04 05:41N 35°52' W 074°18'211.8
2018-May-04 05:30N 35°53' W 074°20'8610.9
2018-May-03 21:37N 36°47' W 075°43'211.1
2018-May-03 21:25N 36°49' W 075°45'511.2
2018-May-03 20:59N 36°51' W 075°50'510.2
2018-May-03 20:30N 36°55' W 075°55'4 8.6
2018-May-03 20:00N 36°57' W 075°59'4 8.8
2018-May-03 19:30N 37°01' W 076°02'5 9.1
2018-May-03 19:00N 37°04' W 076°06'5 9.3
2018-May-03 18:29N 37°09' W 076°09'50 8.8
2018-May-03 12:48N 37°59' W 076°11'311.1
2018-May-03 12:29N 38°02' W 076°13'711.2
2018-May-03 11:51N 38°09' W 076°14'3410.4
2018-May-03 08:33N 38°42' W 076°26'110.8
2018-May-03 08:28N 38°43' W 076°26'510.9
2018-May-03 08:00N 38°48' W 076°25'611.3
2018-May-03 07:30N 38°54' W 076°24'510.5
2018-May-03 07:00N 38°59' W 076°23'4 8.7
2018-May-03 06:30N 39°03' W 076°23'4 8.7
2018-May-03 06:00N 39°08' W 076°24'4 8.4
2018-May-03 05:30N 39°11' W 076°27'4 8.1
2018-May-03 05:00N 39°13' W 076°32'2 4.3
2018-May-03 04:28N 39°13' W 076°34'0 0.3
2018-May-03 03:58N 39°13' W 076°35'0 0.0
2018-May-03 03:28N 39°13' W 076°35'0 0.0
2018-May-03 02:58N 39°13' W 076°35'0 0.0
2018-May-03 02:28N 39°13' W 076°35'0 0.0
2018-May-03 01:58N 39°13' W 076°35'0 0.0
2018-May-03 01:28N 39°13' W 076°35'0 0.0
2018-May-03 00:58N 39°13' W 076°35'0 0.0
2018-May-03 00:28N 39°13' W 076°35'0 0.0
2018-May-02 23:58N 39°13' W 076°35'0 0.0
2018-May-02 23:28N 39°13' W 076°35'0 0.0
2018-May-02 22:58N 39°13' W 076°35'0 0.0
2018-May-02 22:28N 39°13' W 076°35'0 0.0
2018-May-02 21:58N 39°13' W 076°35'0 0.0
2018-May-02 21:28N 39°13' W 076°35'0 0.0
2018-May-02 20:58N 39°13' W 076°35'0 0.0
2018-May-02 20:28N 39°13' W 076°35'0 0.0
2018-May-02 19:58N 39°13' W 076°35'0 0.0
2018-May-02 19:28N 39°13' W 076°35'0 0.0
2018-May-02 18:58N 39°13' W 076°35'0 0.0
2018-May-02 18:28N 39°13' W 076°35'0 0.0
2018-May-02 17:58N 39°13' W 076°35'0 0.0
2018-May-02 17:28N 39°13' W 076°35'0 0.0
2018-May-02 16:58N 39°13' W 076°35'0 0.0
2018-May-02 16:28N 39°13' W 076°35'0 0.0
2018-May-02 15:58N 39°13' W 076°35'0 0.0
2018-May-02 15:28N 39°13' W 076°35'0 0.0
2018-May-02 14:58N 39°13' W 076°35'0 0.0
2018-May-02 14:28N 39°13' W 076°35'0 0.0
2018-May-02 13:58N 39°13' W 076°35'0 0.0
2018-May-02 13:31N 39°13' W 076°35'0 0.0
2018-May-02 13:01N 39°13' W 076°35'0 0.0
2018-May-02 12:30N 39°13' W 076°35'0 0.0
2018-May-02 12:00N 39°13' W 076°35'0 0.0
2018-May-02 11:30N 39°13' W 076°35'0 0.0
2018-May-02 11:00N 39°13' W 076°35'0 0.0
2018-May-02 10:30N 39°13' W 076°35'0 0.0
2018-May-02 10:00N 39°13' W 076°35'0 0.0
2018-May-02 09:30N 39°13' W 076°35'0 0.0
2018-May-02 09:00N 39°13' W 076°35'0 0.0
2018-May-02 08:30N 39°13' W 076°35'0 0.0
2018-May-02 07:57N 39°13' W 076°35'0 0.0
2018-May-02 07:30N 39°13' W 076°35'0 0.0
2018-May-02 07:00N 39°13' W 076°35'0 0.0
2018-May-02 06:30N 39°13' W 076°35'0 0.0
2018-May-02 06:00N 39°13' W 076°35'0 0.0
2018-May-02 05:30N 39°13' W 076°35'0 0.0
2018-May-02 05:00N 39°13' W 076°35'0 0.0
2018-May-02 04:30N 39°13' W 076°35'0 0.0
2018-May-02 04:00N 39°13' W 076°35'0 0.0
2018-May-02 03:30N 39°13' W 076°35'0 0.0
2018-May-02 03:00N 39°13' W 076°35'0 0.0
2018-May-02 02:30N 39°13' W 076°35'0 0.0
2018-May-02 02:00N 39°13' W 076°35'0 0.0
2018-May-02 01:30N 39°13' W 076°35'0 0.0
2018-May-02 01:00N 39°13' W 076°35'0 0.0
2018-May-02 00:30N 39°13' W 076°35'0 0.0
2018-May-02 00:00N 39°13' W 076°35'0 0.0
2018-May-01 23:30N 39°13' W 076°35'0 0.0
2018-May-01 23:00N 39°13' W 076°35'0 0.0
2018-May-01 22:30N 39°13' W 076°35'0 0.0
2018-May-01 22:00N 39°13' W 076°35'0 0.0
2018-May-01 21:30N 39°13' W 076°35'0 0.0
2018-May-01 21:00N 39°13' W 076°35'0 0.0
2018-May-01 20:30N 39°13' W 076°35'0 0.0
2018-May-01 20:00N 39°13' W 076°35'0 0.0
2018-May-01 19:30N 39°13' W 076°35'0 0.0
2018-May-01 19:00N 39°13' W 076°35'0 0.0
2018-May-01 18:30N 39°13' W 076°35'0 0.0
2018-May-01 18:00N 39°13' W 076°35'0 0.0
2018-May-01 17:30N 39°13' W 076°35'0 0.0
2018-May-01 17:00N 39°13' W 076°35'0 0.0
2018-May-01 16:30N 39°13' W 076°35'0 0.0
2018-May-01 16:00N 39°13' W 076°35'0 0.0
2018-May-01 15:30N 39°13' W 076°35'0 0.0
2018-May-01 15:00N 39°13' W 076°35'0 0.0
2018-May-01 14:30N 39°13' W 076°35'0 0.0
2018-May-01 14:00N 39°13' W 076°35'0 0.0
2018-May-01 13:30N 39°13' W 076°35'0 0.0
2018-May-01 13:00N 39°13' W 076°35'0 0.0
2018-May-01 12:30N 39°13' W 076°35'0 0.0
2018-May-01 12:00N 39°13' W 076°35'0 0.0
2018-May-01 11:30N 39°13' W 076°35'0 0.0
2018-May-01 11:00N 39°13' W 076°35'0 0.0
2018-May-01 10:30N 39°13' W 076°35'0 0.0
2018-May-01 10:00N 39°13' W 076°35'0 0.0
2018-May-01 09:30N 39°13' W 076°35'0 0.0
2018-May-01 09:00N 39°13' W 076°35'0 0.0
2018-May-01 08:30N 39°13' W 076°35'0 0.0
2018-May-01 08:00N 39°13' W 076°35'0 0.0
2018-May-01 07:30N 39°13' W 076°35'0 0.0
2018-May-01 07:00N 39°13' W 076°35'0 0.0
2018-May-01 06:30N 39°13' W 076°35'0 0.0
2018-May-01 06:00N 39°13' W 076°35'0 0.0
2018-May-01 05:30N 39°13' W 076°35'0 0.0
2018-May-01 05:00N 39°13' W 076°35'0 0.0
2018-May-01 04:30N 39°13' W 076°35'0 0.0
2018-May-01 04:00N 39°13' W 076°35'0 0.0
2018-May-01 03:30N 39°13' W 076°35'0 0.0
2018-May-01 03:00N 39°13' W 076°35'0 0.0
2018-May-01 02:30N 39°13' W 076°35'0 0.0
2018-May-01 02:00N 39°13' W 076°35'0 0.0
2018-May-01 01:30N 39°13' W 076°35'0 0.0
2018-May-01 01:00N 39°13' W 076°35'0 0.0
2018-May-01 00:30N 39°13' W 076°35'0 0.0
2018-May-01 00:00N 39°13' W 076°35'0 0.0
2018-Apr-30 23:23N 39°13' W 076°35'0 0.0
2018-Apr-30 22:59N 39°13' W 076°35'0 0.0
2018-Apr-30 22:29N 39°13' W 076°35'0 0.0
2018-Apr-30 21:59N 39°13' W 076°35'0 0.0
2018-Apr-30 21:29N 39°13' W 076°35'0 0.0
2018-Apr-30 20:59N 39°13' W 076°35'0 0.0
2018-Apr-30 20:29N 39°13' W 076°35'0 0.0
2018-Apr-30 19:59N 39°13' W 076°35'0 0.0
2018-Apr-30 19:29N 39°13' W 076°35'0 0.0
2018-Apr-30 18:59N 39°13' W 076°35'0 0.0
2018-Apr-30 18:29N 39°13' W 076°35'0 0.2
2018-Apr-30 18:00N 39°13' W 076°35'2 3.7
2018-Apr-30 17:30N 39°13' W 076°32'4 7.7
2018-Apr-30 17:00N 39°11' W 076°28'5 9.3
2018-Apr-30 16:30N 39°08' W 076°24'510.8
2018-Apr-30 16:00N 39°02' W 076°23'1 1.6
2018-Apr-30 15:30N 39°02' W 076°22'3 5.9
2018-Apr-30 15:00N 38°59' W 076°23'1 2.7
2018-Apr-30 14:29N 38°58' W 076°24'0 0.1
2018-Apr-30 13:59N 38°58' W 076°24'0 0.1
2018-Apr-30 13:29N 38°58' W 076°24'0 0.1
2018-Apr-30 12:59N 38°58' W 076°24'0 0.1
2018-Apr-30 12:29N 38°58' W 076°24'0 0.1
2018-Apr-30 11:59N 38°58' W 076°24'0 0.1
2018-Apr-30 11:26N 38°58' W 076°24'0 0.0
2018-Apr-30 10:56N 38°58' W 076°24'0 0.0
2018-Apr-30 10:29N 38°58' W 076°24'0 0.0
2018-Apr-30 09:59N 38°58' W 076°24'0 0.0
2018-Apr-30 09:26N 38°58' W 076°24'0 0.0
2018-Apr-30 08:59N 38°58' W 076°24'0 0.1
2018-Apr-30 08:29N 38°58' W 076°24'0 0.1
2018-Apr-30 07:59N 38°58' W 076°24'0 0.0
2018-Apr-30 07:26N 38°58' W 076°24'0 0.1
2018-Apr-30 06:59N 38°58' W 076°24'0 0.2
2018-Apr-30 06:29N 38°58' W 076°24'0 0.1
2018-Apr-30 05:59N 38°58' W 076°24'0 0.0
2018-Apr-30 05:29N 38°58' W 076°24'0 0.0
2018-Apr-30 04:59N 38°58' W 076°24'0 0.0
2018-Apr-30 04:29N 38°58' W 076°24'0 0.0
2018-Apr-30 03:59N 38°58' W 076°24'0 0.0
2018-Apr-30 03:29N 38°58' W 076°24'0 0.0
2018-Apr-30 02:59N 38°58' W 076°24'0 0.1
2018-Apr-30 02:26N 38°58' W 076°24'0 0.1
2018-Apr-30 01:59N 38°58' W 076°24'0 0.0
2018-Apr-30 01:29N 38°58' W 076°24'0 0.0
2018-Apr-30 00:56N 38°58' W 076°24'0 0.0
2018-Apr-30 00:29N 38°58' W 076°24'0 0.0
2018-Apr-29 23:56N 38°58' W 076°24'0 0.1
2018-Apr-29 23:29N 38°58' W 076°24'0 0.0
2018-Apr-29 22:59N 38°58' W 076°24'0 0.0
2018-Apr-29 22:29N 38°58' W 076°24'0 0.0
2018-Apr-29 21:59N 38°58' W 076°24'0 0.0
2018-Apr-29 21:29N 38°58' W 076°24'0 0.0
2018-Apr-29 20:59N 38°58' W 076°24'0 0.1
2018-Apr-29 20:29N 38°58' W 076°24'0 0.0
2018-Apr-29 19:59N 38°58' W 076°24'0 0.0
2018-Apr-29 19:29N 38°58' W 076°24'0 0.0
2018-Apr-29 18:59N 38°58' W 076°24'0 0.1
2018-Apr-29 18:29N 38°58' W 076°24'0 0.0
2018-Apr-29 17:59N 38°58' W 076°24'0 0.0
2018-Apr-29 17:29N 38°58' W 076°24'0 0.0
2018-Apr-29 16:59N 38°58' W 076°24'0 0.0
2018-Apr-29 16:29N 38°58' W 076°24'0 0.0
2018-Apr-29 15:59N 38°58' W 076°24'0 0.0
2018-Apr-29 15:29N 38°58' W 076°24'0 0.0
2018-Apr-29 14:59N 38°58' W 076°24'0 0.0
2018-Apr-29 14:29N 38°58' W 076°24'0 0.0
2018-Apr-29 13:59N 38°58' W 076°24'0 0.0
2018-Apr-29 13:29N 38°58' W 076°24'0 0.1
2018-Apr-29 12:59N 38°58' W 076°24'0 0.0
2018-Apr-29 12:29N 38°58' W 076°24'0 0.0
2018-Apr-29 11:56N 38°58' W 076°24'0 0.1
2018-Apr-29 11:29N 38°58' W 076°24'0 0.0
2018-Apr-29 10:59N 38°58' W 076°24'0 0.0
2018-Apr-29 10:29N 38°58' W 076°24'0 0.0
2018-Apr-29 09:59N 38°58' W 076°24'0 0.0
2018-Apr-29 09:28N 38°58' W 076°24'0 0.0
2018-Apr-29 08:58N 38°58' W 076°24'0 0.0
2018-Apr-29 08:28N 38°58' W 076°24'0 0.0
2018-Apr-29 07:55N 38°58' W 076°24'0 0.1
2018-Apr-29 07:28N 38°58' W 076°24'0 0.1
2018-Apr-29 06:58N 38°58' W 076°24'0 0.0
2018-Apr-29 06:28N 38°58' W 076°24'0 0.1
2018-Apr-29 05:58N 38°58' W 076°24'0 0.0
2018-Apr-29 05:25N 38°58' W 076°24'0 0.0
2018-Apr-29 04:58N 38°58' W 076°24'0 0.0
2018-Apr-29 04:19N 38°58' W 076°24'0 0.1
2018-Apr-29 03:55N 38°58' W 076°24'0 0.0
2018-Apr-29 03:28N 38°58' W 076°24'0 0.1
2018-Apr-29 02:58N 38°58' W 076°24'0 0.0
2018-Apr-29 02:28N 38°58' W 076°24'0 0.0
2018-Apr-29 01:58N 38°58' W 076°24'0 0.0
2018-Apr-29 01:28N 38°58' W 076°24'0 0.0
2018-Apr-29 00:58N 38°58' W 076°24'0 0.1
2018-Apr-29 00:28N 38°58' W 076°24'0 0.3
2018-Apr-28 23:58N 38°58' W 076°24'0 0.2
2018-Apr-28 23:28N 38°58' W 076°24'0 0.3
2018-Apr-28 22:58N 38°58' W 076°24'0 0.0
2018-Apr-28 22:28N 38°58' W 076°24'0 0.0
2018-Apr-28 21:58N 38°58' W 076°24'0 0.0
2018-Apr-28 21:28N 38°58' W 076°24'0 0.0
2018-Apr-28 20:58N 38°58' W 076°24'0 0.0
2018-Apr-28 20:28N 38°58' W 076°24'0 0.1
2018-Apr-28 19:58N 38°58' W 076°24'0 0.1
2018-Apr-28 19:28N 38°58' W 076°24'0 0.1
2018-Apr-28 18:58N 38°58' W 076°24'0 0.2
2018-Apr-28 18:28N 38°58' W 076°24'0 0.1
2018-Apr-28 17:52N 38°58' W 076°24'0 0.0
2018-Apr-28 17:22N 38°58' W 076°24'0 0.0
2018-Apr-28 16:16N 38°58' W 076°24'0 0.0
2018-Apr-28 15:52N 38°58' W 076°24'0 0.0
2018-Apr-28 15:25N 38°58' W 076°24'0 0.0
2018-Apr-28 14:43N 38°58' W 076°24'0 0.0
2018-Apr-28 14:25N 38°58' W 076°24'0 0.0
2018-Apr-28 13:49N 38°58' W 076°24'0 0.0
2018-Apr-28 13:16N 38°58' W 076°24'0 0.1
2018-Apr-28 12:49N 38°58' W 076°24'0 0.1
2018-Apr-28 12:28N 38°58' W 076°24'0 0.1
2018-Apr-28 11:58N 38°58' W 076°24'0 0.2
2018-Apr-28 11:28N 38°58' W 076°24'0 0.1
2018-Apr-28 10:58N 38°58' W 076°24'0 0.1
2018-Apr-28 10:28N 38°58' W 076°24'0 0.0
2018-Apr-28 09:58N 38°58' W 076°24'0 0.0
2018-Apr-28 09:25N 38°58' W 076°24'0 0.0
2018-Apr-28 08:58N 38°58' W 076°24'0 0.0
2018-Apr-28 08:28N 38°58' W 076°24'0 0.0
2018-Apr-28 07:58N 38°58' W 076°24'0 0.0
2018-Apr-28 07:28N 38°58' W 076°24'0 0.0
2018-Apr-28 06:58N 38°58' W 076°24'0 0.1
2018-Apr-28 06:28N 38°58' W 076°24'0 0.3
2018-Apr-28 05:58N 38°58' W 076°24'0 0.2
2018-Apr-28 05:28N 38°58' W 076°24'0 0.1
2018-Apr-28 04:58N 38°58' W 076°24'0 0.0
2018-Apr-28 04:28N 38°58' W 076°24'0 0.1
2018-Apr-28 03:58N 38°58' W 076°24'0 0.0
2018-Apr-28 03:28N 38°58' W 076°24'0 0.0
2018-Apr-28 02:58N 38°58' W 076°24'0 0.0
2018-Apr-28 02:28N 38°58' W 076°24'0 0.0
2018-Apr-28 01:58N 38°58' W 076°24'0 0.0
2018-Apr-28 01:28N 38°58' W 076°24'0 0.0
2018-Apr-28 00:58N 38°58' W 076°24'0 0.0
2018-Apr-28 00:28N 38°58' W 076°24'0 0.0
2018-Apr-27 23:58N 38°58' W 076°24'0 0.1
2018-Apr-27 23:28N 38°58' W 076°24'0 0.1
2018-Apr-27 22:58N 38°58' W 076°24'0 0.2
2018-Apr-27 22:28N 38°58' W 076°24'0 0.1
2018-Apr-27 21:58N 38°58' W 076°24'0 0.1
2018-Apr-27 21:31N 38°58' W 076°24'0 0.1
2018-Apr-27 21:01N 38°58' W 076°24'0 0.1
2018-Apr-27 20:31N 38°58' W 076°24'0 0.2
2018-Apr-27 20:00N 38°58' W 076°24'0 0.1
2018-Apr-27 19:30N 38°58' W 076°24'0 0.1
2018-Apr-27 19:00N 38°58' W 076°24'0 0.0
2018-Apr-27 18:30N 38°58' W 076°24'0 0.0
2018-Apr-27 18:00N 38°58' W 076°24'0 0.0
2018-Apr-27 17:30N 38°58' W 076°24'0 0.0
2018-Apr-27 17:00N 38°58' W 076°24'0 0.0
2018-Apr-27 16:30N 38°58' W 076°24'0 0.0
2018-Apr-27 16:00N 38°58' W 076°24'0 0.0
2018-Apr-27 15:30N 38°58' W 076°24'0 0.0
2018-Apr-27 14:57N 38°58' W 076°24'0 0.0
2018-Apr-27 14:30N 38°58' W 076°24'0 0.0
2018-Apr-27 13:30N 38°58' W 076°24'0 0.0
2018-Apr-27 12:57N 38°58' W 076°24'0 0.0
2018-Apr-27 12:30N 38°58' W 076°24'0 0.0
2018-Apr-27 12:00N 38°58' W 076°24'0 0.1
2018-Apr-27 11:30N 38°58' W 076°24'0 0.0
2018-Apr-27 10:57N 38°58' W 076°24'0 0.1
2018-Apr-27 10:30N 38°58' W 076°24'0 0.3
2018-Apr-27 10:00N 38°58' W 076°24'0 0.3
2018-Apr-27 09:30N 38°58' W 076°24'0 0.1
2018-Apr-27 09:00N 38°58' W 076°24'0 0.0
2018-Apr-27 08:30N 38°58' W 076°24'0 0.0
2018-Apr-27 08:00N 38°58' W 076°24'0 0.1
2018-Apr-27 07:30N 38°58' W 076°24'0 0.0
2018-Apr-27 07:00N 38°58' W 076°24'0 0.0
2018-Apr-27 06:30N 38°58' W 076°24'0 0.1
2018-Apr-27 06:00N 38°58' W 076°24'0 0.2
2018-Apr-27 05:30N 38°58' W 076°24'0 0.1
2018-Apr-27 05:00N 38°58' W 076°24'0 0.1
2018-Apr-27 04:30N 38°58' W 076°24'0 0.0
2018-Apr-27 03:57N 38°58' W 076°24'0 0.0
2018-Apr-27 03:30N 38°58' W 076°24'0 0.0
2018-Apr-27 03:00N 38°58' W 076°24'0 0.0
2018-Apr-27 02:30N 38°58' W 076°24'0 0.0
2018-Apr-27 02:00N 38°58' W 076°24'0 0.0
2018-Apr-27 01:30N 38°58' W 076°24'0 0.0
2018-Apr-27 01:00N 38°58' W 076°24'0 0.0
2018-Apr-27 00:30N 38°58' W 076°24'0 0.0
2018-Apr-27 00:00N 38°58' W 076°24'0 0.0
2018-Apr-26 23:30N 38°58' W 076°24'0 0.1
2018-Apr-26 23:00N 38°58' W 076°24'0 0.1
2018-Apr-26 22:30N 38°58' W 076°24'0 0.3
2018-Apr-26 22:00N 38°58' W 076°24'0 0.2
2018-Apr-26 21:30N 38°58' W 076°24'0 0.0
2018-Apr-26 21:00N 38°58' W 076°24'0 0.1
2018-Apr-26 20:30N 38°58' W 076°24'0 0.7
2018-Apr-26 20:00N 38°58' W 076°24'3 6.9
2018-Apr-26 19:30N 38°55' W 076°24'612.8
2018-Apr-26 19:00N 38°48' W 076°25'713.1
2018-Apr-26 18:30N 38°42' W 076°26'3312.9
2018-Apr-26 15:57N 38°10' W 076°15'712.9
2018-Apr-26 15:24N 38°03' W 076°14'612.9
2018-Apr-26 14:57N 37°57' W 076°11'  
Track history (hours):
 
Tides and Currents Weather Stations Pressure Air Temp Water Temp Dewpoint Dewpoint Depression Visibility Wind Speed Wind Dir Waves Ship Positions

Panstellar

Last reported at 2018-May-04 17:50 UTC. Time now 2018-Jun-17 21:50 UTC.
Position N 34°23' W 072°05'.
Warning: this ship's position is 44 days out of date.

Length 225 m; draft 14.2 m.

Type: Cargo ship. MMSI: 538007173.

Date/timePositionNaut miles runAvg speedWind from/ knotsBaromVisibWave heightAir tempDewpointWater temp
2018-May-04 17:50N 34°23' W 072°05'14011.5
2018-May-04 05:41N 35°52' W 074°18'211.8
2018-May-04 05:30N 35°53' W 074°20'8610.9
2018-May-03 21:37N 36°47' W 075°43'211.1
2018-May-03 21:25N 36°49' W 075°45'511.2
2018-May-03 20:59N 36°51' W 075°50'510.2
2018-May-03 20:30N 36°55' W 075°55'4 8.6
2018-May-03 20:00N 36°57' W 075°59'4 8.8
2018-May-03 19:30N 37°01' W 076°02'5 9.1
2018-May-03 19:00N 37°04' W 076°06'5 9.3
2018-May-03 18:29N 37°09' W 076°09'50 8.8
2018-May-03 12:48N 37°59' W 076°11'311.1
2018-May-03 12:29N 38°02' W 076°13'711.2
2018-May-03 11:51N 38°09' W 076°14'3410.4
2018-May-03 08:33N 38°42' W 076°26'110.8
2018-May-03 08:28N 38°43' W 076°26'510.9
2018-May-03 08:00N 38°48' W 076°25'611.3
2018-May-03 07:30N 38°54' W 076°24'510.5
2018-May-03 07:00N 38°59' W 076°23'4 8.7
2018-May-03 06:30N 39°03' W 076°23'4 8.7
2018-May-03 06:00N 39°08' W 076°24'4 8.4
2018-May-03 05:30N 39°11' W 076°27'4 8.1
2018-May-03 05:00N 39°13' W 076°32'2 4.3
2018-May-03 04:28N 39°13' W 076°34'0 0.3
2018-May-03 03:58N 39°13' W 076°35'0 0.0
2018-May-03 03:28N 39°13' W 076°35'0 0.0
2018-May-03 02:58N 39°13' W 076°35'0 0.0
2018-May-03 02:28N 39°13' W 076°35'0 0.0
2018-May-03 01:58N 39°13' W 076°35'0 0.0
2018-May-03 01:28N 39°13' W 076°35'0 0.0
2018-May-03 00:58N 39°13' W 076°35'0 0.0
2018-May-03 00:28N 39°13' W 076°35'0 0.0
2018-May-02 23:58N 39°13' W 076°35'0 0.0
2018-May-02 23:28N 39°13' W 076°35'0 0.0
2018-May-02 22:58N 39°13' W 076°35'0 0.0
2018-May-02 22:28N 39°13' W 076°35'0 0.0
2018-May-02 21:58N 39°13' W 076°35'0 0.0
2018-May-02 21:28N 39°13' W 076°35'0 0.0
2018-May-02 20:58N 39°13' W 076°35'0 0.0
2018-May-02 20:28N 39°13' W 076°35'0 0.0
2018-May-02 19:58N 39°13' W 076°35'0 0.0
2018-May-02 19:28N 39°13' W 076°35'0 0.0
2018-May-02 18:58N 39°13' W 076°35'0 0.0
2018-May-02 18:28N 39°13' W 076°35'0 0.0
2018-May-02 17:58N 39°13' W 076°35'0 0.0
2018-May-02 17:28N 39°13' W 076°35'0 0.0
2018-May-02 16:58N 39°13' W 076°35'0 0.0
2018-May-02 16:28N 39°13' W 076°35'0 0.0
2018-May-02 15:58N 39°13' W 076°35'0 0.0
2018-May-02 15:28N 39°13' W 076°35'0 0.0
2018-May-02 14:58N 39°13' W 076°35'0 0.0
2018-May-02 14:28N 39°13' W 076°35'0 0.0
2018-May-02 13:58N 39°13' W 076°35'0 0.0
2018-May-02 13:31N 39°13' W 076°35'0 0.0
2018-May-02 13:01N 39°13' W 076°35'0 0.0
2018-May-02 12:30N 39°13' W 076°35'0 0.0
2018-May-02 12:00N 39°13' W 076°35'0 0.0
2018-May-02 11:30N 39°13' W 076°35'0 0.0
2018-May-02 11:00N 39°13' W 076°35'0 0.0
2018-May-02 10:30N 39°13' W 076°35'0 0.0
2018-May-02 10:00N 39°13' W 076°35'0 0.0
2018-May-02 09:30N 39°13' W 076°35'0 0.0
2018-May-02 09:00N 39°13' W 076°35'0 0.0
2018-May-02 08:30N 39°13' W 076°35'0 0.0
2018-May-02 07:57N 39°13' W 076°35'0 0.0
2018-May-02 07:30N 39°13' W 076°35'0 0.0
2018-May-02 07:00N 39°13' W 076°35'0 0.0
2018-May-02 06:30N 39°13' W 076°35'0 0.0
2018-May-02 06:00N 39°13' W 076°35'0 0.0
2018-May-02 05:30N 39°13' W 076°35'0 0.0
2018-May-02 05:00N 39°13' W 076°35'0 0.0
2018-May-02 04:30N 39°13' W 076°35'0 0.0
2018-May-02 04:00N 39°13' W 076°35'0 0.0
2018-May-02 03:30N 39°13' W 076°35'0 0.0
2018-May-02 03:00N 39°13' W 076°35'0 0.0
2018-May-02 02:30N 39°13' W 076°35'0 0.0
2018-May-02 02:00N 39°13' W 076°35'0 0.0
2018-May-02 01:30N 39°13' W 076°35'0 0.0
2018-May-02 01:00N 39°13' W 076°35'0 0.0
2018-May-02 00:30N 39°13' W 076°35'0 0.0
2018-May-02 00:00N 39°13' W 076°35'0 0.0
2018-May-01 23:30N 39°13' W 076°35'0 0.0
2018-May-01 23:00N 39°13' W 076°35'0 0.0
2018-May-01 22:30N 39°13' W 076°35'0 0.0
2018-May-01 22:00N 39°13' W 076°35'0 0.0
2018-May-01 21:30N 39°13' W 076°35'0 0.0
2018-May-01 21:00N 39°13' W 076°35'0 0.0
2018-May-01 20:30N 39°13' W 076°35'0 0.0
2018-May-01 20:00N 39°13' W 076°35'0 0.0
2018-May-01 19:30N 39°13' W 076°35'0 0.0
2018-May-01 19:00N 39°13' W 076°35'0 0.0
2018-May-01 18:30N 39°13' W 076°35'0 0.0
2018-May-01 18:00N 39°13' W 076°35'0 0.0
2018-May-01 17:30N 39°13' W 076°35'0 0.0
2018-May-01 17:00N 39°13' W 076°35'0 0.0
2018-May-01 16:30N 39°13' W 076°35'0 0.0
2018-May-01 16:00N 39°13' W 076°35'0 0.0
2018-May-01 15:30N 39°13' W 076°35'0 0.0
2018-May-01 15:00N 39°13' W 076°35'0 0.0
2018-May-01 14:30N 39°13' W 076°35'0 0.0
2018-May-01 14:00N 39°13' W 076°35'0 0.0
2018-May-01 13:30N 39°13' W 076°35'0 0.0
2018-May-01 13:00N 39°13' W 076°35'0 0.0
2018-May-01 12:30N 39°13' W 076°35'0 0.0
2018-May-01 12:00N 39°13' W 076°35'0 0.0
2018-May-01 11:30N 39°13' W 076°35'0 0.0
2018-May-01 11:00N 39°13' W 076°35'0 0.0
2018-May-01 10:30N 39°13' W 076°35'0 0.0
2018-May-01 10:00N 39°13' W 076°35'0 0.0
2018-May-01 09:30N 39°13' W 076°35'0 0.0
2018-May-01 09:00N 39°13' W 076°35'0 0.0
2018-May-01 08:30N 39°13' W 076°35'0 0.0
2018-May-01 08:00N 39°13' W 076°35'0 0.0
2018-May-01 07:30N 39°13' W 076°35'0 0.0
2018-May-01 07:00N 39°13' W 076°35'0 0.0
2018-May-01 06:30N 39°13' W 076°35'0 0.0
2018-May-01 06:00N 39°13' W 076°35'0 0.0
2018-May-01 05:30N 39°13' W 076°35'0 0.0
2018-May-01 05:00N 39°13' W 076°35'0 0.0
2018-May-01 04:30N 39°13' W 076°35'0 0.0
2018-May-01 04:00N 39°13' W 076°35'0 0.0
2018-May-01 03:30N 39°13' W 076°35'0 0.0
2018-May-01 03:00N 39°13' W 076°35'0 0.0
2018-May-01 02:30N 39°13' W 076°35'0 0.0
2018-May-01 02:00N 39°13' W 076°35'0 0.0
2018-May-01 01:30N 39°13' W 076°35'0 0.0
2018-May-01 01:00N 39°13' W 076°35'0 0.0
2018-May-01 00:30N 39°13' W 076°35'0 0.0
2018-May-01 00:00N 39°13' W 076°35'0 0.0
2018-Apr-30 23:23N 39°13' W 076°35'0 0.0
2018-Apr-30 22:59N 39°13' W 076°35'0 0.0
2018-Apr-30 22:29N 39°13' W 076°35'0 0.0
2018-Apr-30 21:59N 39°13' W 076°35'0 0.0
2018-Apr-30 21:29N 39°13' W 076°35'0 0.0
2018-Apr-30 20:59N 39°13' W 076°35'0 0.0
2018-Apr-30 20:29N 39°13' W 076°35'0 0.0
2018-Apr-30 19:59N 39°13' W 076°35'0 0.0
2018-Apr-30 19:29N 39°13' W 076°35'0 0.0
2018-Apr-30 18:59N 39°13' W 076°35'0 0.0
2018-Apr-30 18:29N 39°13' W 076°35'0 0.2
2018-Apr-30 18:00N 39°13' W 076°35'2 3.7
2018-Apr-30 17:30N 39°13' W 076°32'4 7.7
2018-Apr-30 17:00N 39°11' W 076°28'5 9.3
2018-Apr-30 16:30N 39°08' W 076°24'510.8
2018-Apr-30 16:00N 39°02' W 076°23'1 1.6
2018-Apr-30 15:30N 39°02' W 076°22'3 5.9
2018-Apr-30 15:00N 38°59' W 076°23'1 2.7
2018-Apr-30 14:29N 38°58' W 076°24'0 0.1
2018-Apr-30 13:59N 38°58' W 076°24'0 0.1
2018-Apr-30 13:29N 38°58' W 076°24'0 0.1
2018-Apr-30 12:59N 38°58' W 076°24'0 0.1
2018-Apr-30 12:29N 38°58' W 076°24'0 0.1
2018-Apr-30 11:59N 38°58' W 076°24'0 0.1
2018-Apr-30 11:26N 38°58' W 076°24'0 0.0
2018-Apr-30 10:56N 38°58' W 076°24'0 0.0
2018-Apr-30 10:29N 38°58' W 076°24'0 0.0
2018-Apr-30 09:59N 38°58' W 076°24'0 0.0
2018-Apr-30 09:26N 38°58' W 076°24'0 0.0
2018-Apr-30 08:59N 38°58' W 076°24'0 0.1
2018-Apr-30 08:29N 38°58' W 076°24'0 0.1
2018-Apr-30 07:59N 38°58' W 076°24'0 0.0
2018-Apr-30 07:26N 38°58' W 076°24'0 0.1
2018-Apr-30 06:59N 38°58' W 076°24'0 0.2
2018-Apr-30 06:29N 38°58' W 076°24'0 0.1
2018-Apr-30 05:59N 38°58' W 076°24'0 0.0
2018-Apr-30 05:29N 38°58' W 076°24'0 0.0
2018-Apr-30 04:59N 38°58' W 076°24'0 0.0
2018-Apr-30 04:29N 38°58' W 076°24'0 0.0
2018-Apr-30 03:59N 38°58' W 076°24'0 0.0
2018-Apr-30 03:29N 38°58' W 076°24'0 0.0
2018-Apr-30 02:59N 38°58' W 076°24'0 0.1
2018-Apr-30 02:26N 38°58' W 076°24'0 0.1
2018-Apr-30 01:59N 38°58' W 076°24'0 0.0
2018-Apr-30 01:29N 38°58' W 076°24'0 0.0
2018-Apr-30 00:56N 38°58' W 076°24'0 0.0
2018-Apr-30 00:29N 38°58' W 076°24'0 0.0
2018-Apr-29 23:56N 38°58' W 076°24'0 0.1
2018-Apr-29 23:29N 38°58' W 076°24'0 0.0
2018-Apr-29 22:59N 38°58' W 076°24'0 0.0
2018-Apr-29 22:29N 38°58' W 076°24'0 0.0
2018-Apr-29 21:59N 38°58' W 076°24'0 0.0
2018-Apr-29 21:29N 38°58' W 076°24'0 0.0
2018-Apr-29 20:59N 38°58' W 076°24'0 0.1
2018-Apr-29 20:29N 38°58' W 076°24'0 0.0
2018-Apr-29 19:59N 38°58' W 076°24'0 0.0
2018-Apr-29 19:29N 38°58' W 076°24'0 0.0
2018-Apr-29 18:59N 38°58' W 076°24'0 0.1
2018-Apr-29 18:29N 38°58' W 076°24'0 0.0
2018-Apr-29 17:59N 38°58' W 076°24'0 0.0
2018-Apr-29 17:29N 38°58' W 076°24'0 0.0
2018-Apr-29 16:59N 38°58' W 076°24'0 0.0
2018-Apr-29 16:29N 38°58' W 076°24'0 0.0
2018-Apr-29 15:59N 38°58' W 076°24'0 0.0
2018-Apr-29 15:29N 38°58' W 076°24'0 0.0
2018-Apr-29 14:59N 38°58' W 076°24'0 0.0
2018-Apr-29 14:29N 38°58' W 076°24'0 0.0
2018-Apr-29 13:59N 38°58' W 076°24'0 0.0
2018-Apr-29 13:29N 38°58' W 076°24'0 0.1
2018-Apr-29 12:59N 38°58' W 076°24'0 0.0
2018-Apr-29 12:29N 38°58' W 076°24'0 0.0
2018-Apr-29 11:56N 38°58' W 076°24'0 0.1
2018-Apr-29 11:29N 38°58' W 076°24'0 0.0
2018-Apr-29 10:59N 38°58' W 076°24'0 0.0
2018-Apr-29 10:29N 38°58' W 076°24'0 0.0
2018-Apr-29 09:59N 38°58' W 076°24'0 0.0
2018-Apr-29 09:28N 38°58' W 076°24'0 0.0
2018-Apr-29 08:58N 38°58' W 076°24'0 0.0
2018-Apr-29 08:28N 38°58' W 076°24'0 0.0
2018-Apr-29 07:55N 38°58' W 076°24'0 0.1
2018-Apr-29 07:28N 38°58' W 076°24'0 0.1
2018-Apr-29 06:58N 38°58' W 076°24'0 0.0
2018-Apr-29 06:28N 38°58' W 076°24'0 0.1
2018-Apr-29 05:58N 38°58' W 076°24'0 0.0
2018-Apr-29 05:25N 38°58' W 076°24'0 0.0
2018-Apr-29 04:58N 38°58' W 076°24'0 0.0
2018-Apr-29 04:19N 38°58' W 076°24'0 0.1
2018-Apr-29 03:55N 38°58' W 076°24'0 0.0
2018-Apr-29 03:28N 38°58' W 076°24'0 0.1
2018-Apr-29 02:58N 38°58' W 076°24'0 0.0
2018-Apr-29 02:28N 38°58' W 076°24'0 0.0
2018-Apr-29 01:58N 38°58' W 076°24'0 0.0
2018-Apr-29 01:28N 38°58' W 076°24'0 0.0
2018-Apr-29 00:58N 38°58' W 076°24'0 0.1
2018-Apr-29 00:28N 38°58' W 076°24'0 0.3
2018-Apr-28 23:58N 38°58' W 076°24'0 0.2
2018-Apr-28 23:28N 38°58' W 076°24'0 0.3
2018-Apr-28 22:58N 38°58' W 076°24'0 0.0
2018-Apr-28 22:28N 38°58' W 076°24'0 0.0
2018-Apr-28 21:58N 38°58' W 076°24'0 0.0
2018-Apr-28 21:28N 38°58' W 076°24'0 0.0
2018-Apr-28 20:58N 38°58' W 076°24'0 0.0
2018-Apr-28 20:28N 38°58' W 076°24'0 0.1
2018-Apr-28 19:58N 38°58' W 076°24'0 0.1
2018-Apr-28 19:28N 38°58' W 076°24'0 0.1
2018-Apr-28 18:58N 38°58' W 076°24'0 0.2
2018-Apr-28 18:28N 38°58' W 076°24'0 0.1
2018-Apr-28 17:52N 38°58' W 076°24'0 0.0
2018-Apr-28 17:22N 38°58' W 076°24'0 0.0
2018-Apr-28 16:16N 38°58' W 076°24'0 0.0
2018-Apr-28 15:52N 38°58' W 076°24'0 0.0
2018-Apr-28 15:25N 38°58' W 076°24'0 0.0
2018-Apr-28 14:43N 38°58' W 076°24'0 0.0
2018-Apr-28 14:25N 38°58' W 076°24'0 0.0
2018-Apr-28 13:49N 38°58' W 076°24'0 0.0
2018-Apr-28 13:16N 38°58' W 076°24'0 0.1
2018-Apr-28 12:49N 38°58' W 076°24'0 0.1
2018-Apr-28 12:28N 38°58' W 076°24'0 0.1
2018-Apr-28 11:58N 38°58' W 076°24'0 0.2
2018-Apr-28 11:28N 38°58' W 076°24'0 0.1
2018-Apr-28 10:58N 38°58' W 076°24'0 0.1
2018-Apr-28 10:28N 38°58' W 076°24'0 0.0
2018-Apr-28 09:58N 38°58' W 076°24'0 0.0
2018-Apr-28 09:25N 38°58' W 076°24'0 0.0
2018-Apr-28 08:58N 38°58' W 076°24'0 0.0
2018-Apr-28 08:28N 38°58' W 076°24'0 0.0
2018-Apr-28 07:58N 38°58' W 076°24'0 0.0
2018-Apr-28 07:28N 38°58' W 076°24'0 0.0
2018-Apr-28 06:58N 38°58' W 076°24'0 0.1
2018-Apr-28 06:28N 38°58' W 076°24'0 0.3
2018-Apr-28 05:58N 38°58' W 076°24'0 0.2
2018-Apr-28 05:28N 38°58' W 076°24'0 0.1
2018-Apr-28 04:58N 38°58' W 076°24'0 0.0
2018-Apr-28 04:28N 38°58' W 076°24'0 0.1
2018-Apr-28 03:58N 38°58' W 076°24'0 0.0
2018-Apr-28 03:28N 38°58' W 076°24'0 0.0
2018-Apr-28 02:58N 38°58' W 076°24'0 0.0
2018-Apr-28 02:28N 38°58' W 076°24'0 0.0
2018-Apr-28 01:58N 38°58' W 076°24'0 0.0
2018-Apr-28 01:28N 38°58' W 076°24'0 0.0
2018-Apr-28 00:58N 38°58' W 076°24'0 0.0
2018-Apr-28 00:28N 38°58' W 076°24'0 0.0
2018-Apr-27 23:58N 38°58' W 076°24'0 0.1
2018-Apr-27 23:28N 38°58' W 076°24'0 0.1
2018-Apr-27 22:58N 38°58' W 076°24'0 0.2
2018-Apr-27 22:28N 38°58' W 076°24'0 0.1
2018-Apr-27 21:58N 38°58' W 076°24'0 0.1
2018-Apr-27 21:31N 38°58' W 076°24'0 0.1
2018-Apr-27 21:01N 38°58' W 076°24'0 0.1
2018-Apr-27 20:31N 38°58' W 076°24'0 0.2
2018-Apr-27 20:00N 38°58' W 076°24'0 0.1
2018-Apr-27 19:30N 38°58' W 076°24'0 0.1
2018-Apr-27 19:00N 38°58' W 076°24'0 0.0
2018-Apr-27 18:30N 38°58' W 076°24'0 0.0
2018-Apr-27 18:00N 38°58' W 076°24'0 0.0
2018-Apr-27 17:30N 38°58' W 076°24'0 0.0
2018-Apr-27 17:00N 38°58' W 076°24'0 0.0
2018-Apr-27 16:30N 38°58' W 076°24'0 0.0
2018-Apr-27 16:00N 38°58' W 076°24'0 0.0
2018-Apr-27 15:30N 38°58' W 076°24'0 0.0
2018-Apr-27 14:57N 38°58' W 076°24'0 0.0
2018-Apr-27 14:30N 38°58' W 076°24'0 0.0
2018-Apr-27 13:30N 38°58' W 076°24'0 0.0
2018-Apr-27 12:57N 38°58' W 076°24'0 0.0
2018-Apr-27 12:30N 38°58' W 076°24'0 0.0
2018-Apr-27 12:00N 38°58' W 076°24'0 0.1
2018-Apr-27 11:30N 38°58' W 076°24'0 0.0
2018-Apr-27 10:57N 38°58' W 076°24'0 0.1
2018-Apr-27 10:30N 38°58' W 076°24'0 0.3
2018-Apr-27 10:00N 38°58' W 076°24'0 0.3
2018-Apr-27 09:30N 38°58' W 076°24'0 0.1
2018-Apr-27 09:00N 38°58' W 076°24'0 0.0
2018-Apr-27 08:30N 38°58' W 076°24'0 0.0
2018-Apr-27 08:00N 38°58' W 076°24'0 0.1
2018-Apr-27 07:30N 38°58' W 076°24'0 0.0
2018-Apr-27 07:00N 38°58' W 076°24'0 0.0
2018-Apr-27 06:30N 38°58' W 076°24'0 0.1
2018-Apr-27 06:00N 38°58' W 076°24'0 0.2
2018-Apr-27 05:30N 38°58' W 076°24'0 0.1
2018-Apr-27 05:00N 38°58' W 076°24'0 0.1
2018-Apr-27 04:30N 38°58' W 076°24'0 0.0
2018-Apr-27 03:57N 38°58' W 076°24'0 0.0
2018-Apr-27 03:30N 38°58' W 076°24'0 0.0
2018-Apr-27 03:00N 38°58' W 076°24'0 0.0
2018-Apr-27 02:30N 38°58' W 076°24'0 0.0
2018-Apr-27 02:00N 38°58' W 076°24'0 0.0
2018-Apr-27 01:30N 38°58' W 076°24'0 0.0
2018-Apr-27 01:00N 38°58' W 076°24'0 0.0
2018-Apr-27 00:30N 38°58' W 076°24'0 0.0
2018-Apr-27 00:00N 38°58' W 076°24'0 0.0
2018-Apr-26 23:30N 38°58' W 076°24'0 0.1
2018-Apr-26 23:00N 38°58' W 076°24'0 0.1
2018-Apr-26 22:30N 38°58' W 076°24'0 0.3
2018-Apr-26 22:00N 38°58' W 076°24'0 0.2
2018-Apr-26 21:30N 38°58' W 076°24'0 0.0
2018-Apr-26 21:00N 38°58' W 076°24'0 0.1
2018-Apr-26 20:30N 38°58' W 076°24'0 0.7
2018-Apr-26 20:00N 38°58' W 076°24'3 6.9
2018-Apr-26 19:30N 38°55' W 076°24'612.8
2018-Apr-26 19:00N 38°48' W 076°25'713.1
2018-Apr-26 18:30N 38°42' W 076°26'3312.9
2018-Apr-26 15:57N 38°10' W 076°15'712.9
2018-Apr-26 15:24N 38°03' W 076°14'612.9
2018-Apr-26 14:57N 37°57' W 076°11'  

Dump ship's entire track history